createdAt,value
2022-09-15T00:02:10.646Z,85.68
2022-09-15T00:04:37.207Z,86.54
2022-09-15T00:07:03.732Z,87.81
2022-09-15T00:09:30.208Z,87.31
2022-09-15T00:11:57.205Z,88.90
2022-09-15T00:14:23.758Z,89.66
2022-09-15T00:16:50.305Z,91.28
2022-09-15T00:19:16.801Z,91.93
2022-09-15T00:21:43.273Z,91.13
2022-09-15T00:24:09.733Z,90.91
2022-09-15T00:26:36.614Z,89.65
2022-09-15T00:29:04.143Z,88.48
2022-09-15T00:31:31.707Z,87.12
2022-09-15T00:33:59.772Z,86.29
2022-09-15T00:36:26.747Z,86.15
2022-09-15T00:38:53.592Z,85.96
2022-09-15T00:41:21.852Z,85.99
2022-09-15T00:44:06.539Z,86.42
2022-09-15T00:46:37.196Z,85.29
2022-09-15T00:49:03.561Z,85.45
2022-09-15T00:51:39.082Z,85.01
2022-09-15T00:54:09.462Z,84.96
2022-09-15T00:56:37.922Z,84.18
2022-09-15T00:59:07.273Z,84.95
2022-09-15T01:01:34.060Z,85.10
2022-09-15T01:04:00.784Z,84.96
2022-09-15T01:06:29.332Z,84.99
2022-09-15T01:09:14.993Z,85.49
2022-09-15T01:11:42.206Z,84.97
2022-09-15T01:14:08.910Z,85.29
2022-09-15T01:16:56.735Z,86.07
2022-09-15T01:19:29.411Z,85.68
2022-09-15T01:22:37.005Z,86.53
2022-09-15T01:25:07.836Z,87.77
2022-09-15T01:27:43.307Z,88.72
2022-09-15T01:30:12.808Z,88.72
2022-09-15T01:33:02.140Z,89.34
2022-09-15T01:35:46.690Z,89.78
2022-09-15T01:38:22.249Z,90.56
2022-09-15T01:41:13.792Z,91.53
2022-09-15T01:43:51.553Z,91.16
2022-09-15T01:46:20.385Z,91.35
2022-09-15T01:48:48.917Z,90.82
2022-09-15T01:51:16.348Z,91.66
2022-09-15T01:53:42.934Z,92.17
2022-09-15T01:56:10.886Z,91.32
2022-09-15T01:58:39.096Z,91.41
2022-09-15T02:01:22.816Z,91.25
2022-09-15T02:03:53.128Z,89.96
2022-09-15T02:06:26.317Z,90.03
2022-09-15T02:09:00.365Z,89.50
2022-09-15T02:11:26.857Z,88.15
2022-09-15T02:14:07.333Z,86.92
2022-09-15T02:16:35.323Z,87.29
2022-09-15T02:19:33.901Z,86.94
2022-09-15T02:22:17.989Z,87.29
2022-09-15T02:24:57.180Z,88.59
2022-09-15T02:27:25.465Z,89.55
2022-09-15T02:29:54.147Z,89.94
2022-09-15T02:32:22.796Z,88.87
2022-09-15T02:34:50.453Z,87.79
2022-09-15T02:37:21.038Z,87.00
2022-09-15T02:39:51.378Z,86.95
2022-09-15T02:42:28.448Z,87.68
2022-09-15T02:44:55.646Z,87.02
2022-09-15T02:47:23.210Z,86.26
2022-09-15T02:49:49.854Z,86.86
2022-09-15T02:52:16.327Z,86.37
2022-09-15T02:54:42.812Z,85.93
2022-09-15T02:57:09.270Z,85.81
2022-09-15T02:59:35.718Z,86.91
2022-09-15T03:02:02.228Z,87.58
2022-09-15T03:04:28.726Z,87.29
2022-09-15T03:06:55.201Z,87.80
2022-09-15T03:09:21.620Z,86.92
2022-09-15T03:11:48.128Z,87.06
2022-09-15T03:14:14.561Z,86.84
2022-09-15T03:16:41.165Z,87.91
2022-09-15T03:19:07.620Z,87.43
2022-09-15T03:21:35.009Z,88.54
2022-09-15T03:24:01.670Z,88.50
2022-09-15T03:26:28.161Z,88.27
2022-09-15T03:28:54.627Z,88.19
2022-09-15T03:31:21.118Z,88.52
2022-09-15T03:33:48.096Z,87.66
2022-09-15T03:36:14.654Z,87.42
2022-09-15T03:38:44.053Z,87.85
2022-09-15T03:41:11.955Z,89.61
2022-09-15T03:43:38.905Z,89.68
2022-09-15T03:46:06.766Z,89.15
2022-09-15T03:48:34.793Z,89.33
2022-09-15T03:51:03.153Z,88.30
2022-09-15T03:53:32.034Z,88.76
2022-09-15T03:56:42.482Z,89.08
2022-09-15T03:59:08.946Z,90.86
2022-09-15T04:01:35.518Z,90.29
2022-09-15T04:04:02.295Z,89.55
2022-09-15T04:06:28.753Z,89.98
2022-09-15T04:08:55.240Z,90.01
2022-09-15T04:11:22.530Z,90.16
2022-09-15T04:13:49.284Z,90.92
2022-09-15T04:16:18.480Z,90.25
2022-09-15T04:18:45.504Z,89.82
2022-09-15T04:21:14.581Z,88.84
2022-09-15T04:23:42.007Z,88.51
2022-09-15T04:26:19.944Z,88.49
2022-09-15T04:28:46.471Z,88.28
2022-09-15T04:31:14.596Z,88.98
2022-09-15T04:33:42.461Z,89.48
2022-09-15T04:36:14.725Z,89.38
2022-09-15T04:38:41.423Z,89.15
2022-09-15T04:41:08.155Z,88.45
2022-09-15T04:43:35.312Z,87.76
2022-09-15T04:46:01.850Z,87.44
2022-09-15T04:48:28.585Z,87.25
2022-09-15T04:51:01.116Z,87.44
2022-09-15T04:53:27.588Z,87.87
2022-09-15T04:55:54.032Z,87.06
2022-09-15T04:58:20.560Z,87.64
2022-09-15T05:00:47.042Z,89.12
2022-09-15T05:03:14.386Z,88.10
2022-09-15T05:05:41.155Z,87.63
2022-09-15T05:08:07.678Z,88.39
2022-09-15T05:10:34.377Z,89.35
2022-09-15T05:13:00.812Z,89.40
2022-09-15T05:15:27.286Z,89.30
2022-09-15T05:17:53.817Z,89.59
2022-09-15T05:20:20.267Z,89.41
2022-09-15T05:22:46.707Z,90.16
2022-09-15T05:25:13.169Z,91.00
2022-09-15T05:27:39.652Z,90.13
2022-09-15T05:30:38.701Z,90.83
2022-09-15T05:32:54.318Z,91.50
2022-09-15T05:35:20.799Z,91.13
2022-09-15T05:37:47.273Z,91.88
2022-09-15T05:40:13.816Z,92.67
2022-09-15T05:42:40.287Z,93.88
2022-09-15T05:45:07.330Z,93.73
2022-09-15T05:47:33.796Z,92.06
2022-09-15T05:50:00.282Z,92.07
2022-09-15T05:52:27.997Z,92.44
2022-09-15T05:54:58.821Z,91.68
2022-09-15T05:57:26.438Z,92.26
2022-09-15T05:59:53.126Z,91.55
2022-09-15T06:02:19.621Z,90.27
2022-09-15T06:04:46.130Z,90.87
2022-09-15T06:07:12.562Z,92.63
2022-09-15T06:09:39.087Z,92.56
2022-09-15T06:12:05.730Z,93.19
2022-09-15T06:14:32.239Z,93.91
2022-09-15T06:16:58.676Z,93.45
2022-09-15T06:19:25.149Z,91.97
2022-09-15T06:21:51.685Z,92.01
2022-09-15T06:24:19.591Z,91.74
2022-09-15T06:26:46.111Z,92.48
2022-09-15T06:29:12.659Z,92.20
2022-09-15T06:31:39.309Z,91.07
2022-09-15T06:34:05.967Z,90.70
2022-09-15T06:36:32.888Z,89.73
2022-09-15T06:38:59.422Z,89.55
2022-09-15T06:41:26.550Z,89.95
2022-09-15T06:43:53.204Z,89.67
2022-09-15T06:46:22.656Z,88.21
2022-09-15T06:48:49.286Z,89.33
2022-09-15T06:51:17.422Z,88.87
2022-09-15T06:53:44.110Z,89.25
2022-09-15T06:56:15.876Z,88.62
2022-09-15T06:58:43.400Z,87.95
2022-09-15T07:01:47.556Z,86.95
2022-09-15T07:08:41.957Z,84.89
2022-09-15T07:11:09.414Z,84.14
2022-09-15T07:13:36.108Z,83.35
2022-09-15T07:16:04.455Z,82.07
2022-09-15T07:18:31.525Z,81.89
2022-09-15T07:21:02.877Z,81.69
2022-09-15T07:23:29.816Z,81.52
2022-09-15T07:26:09.331Z,81.25
2022-09-15T07:28:36.131Z,80.05
2022-09-15T07:31:04.224Z,78.32
2022-09-15T07:33:30.711Z,78.41
2022-09-15T07:35:57.180Z,78.60
2022-09-15T07:38:23.734Z,77.91
2022-09-15T07:40:50.168Z,75.65
2022-09-15T07:43:16.653Z,75.86
2022-09-15T07:45:43.120Z,77.66
2022-09-15T07:48:09.650Z,77.52
2022-09-15T07:50:36.178Z,77.21
2022-09-15T07:53:02.656Z,76.71
2022-09-15T07:55:29.118Z,76.27
2022-09-15T07:57:59.412Z,75.59
2022-09-15T08:00:26.403Z,74.80
2022-09-15T08:02:52.960Z,72.69
2022-09-15T08:05:19.533Z,72.04
2022-09-15T08:07:46.102Z,70.73
2022-09-15T08:10:12.553Z,71.51
2022-09-15T08:12:39.000Z,71.00
2022-09-15T08:15:05.705Z,70.84
2022-09-15T08:17:32.247Z,70.10
2022-09-15T08:19:58.751Z,69.20
2022-09-15T08:22:25.240Z,69.29
2022-09-15T08:24:51.721Z,69.78
2022-09-15T08:27:18.261Z,69.39
2022-09-15T08:29:44.743Z,70.16
2022-09-15T08:32:11.217Z,69.50
2022-09-15T08:34:37.693Z,66.66
2022-09-15T08:37:04.167Z,66.09
2022-09-15T08:39:30.628Z,64.63
2022-09-15T08:41:57.877Z,63.66
2022-09-15T08:44:36.647Z,61.16
2022-09-15T08:47:27.617Z,62.82
2022-09-15T08:50:15.909Z,63.61
2022-09-15T08:52:46.237Z,62.80
2022-09-15T08:55:17.999Z,61.69
2022-09-15T08:57:44.464Z,62.64
2022-09-15T09:00:15.396Z,61.37
2022-09-15T09:02:52.728Z,63.72
2022-09-15T09:05:48.320Z,61.69
2022-09-15T09:08:43.520Z,61.05
2022-09-15T09:11:15.945Z,60.37
2022-09-15T09:14:05.184Z,60.14
2022-09-15T09:16:52.832Z,60.19
2022-09-15T09:19:32.124Z,60.45
2022-09-15T09:22:03.617Z,62.64
2022-09-15T09:24:40.889Z,61.59
2022-09-15T09:27:12.999Z,61.75
2022-09-15T09:29:42.778Z,62.97
2022-09-15T09:32:22.425Z,63.61
2022-09-15T09:34:59.055Z,64.35
2022-09-15T09:37:25.532Z,65.48
2022-09-15T09:39:52.034Z,63.99
2022-09-15T09:42:18.787Z,62.64
2022-09-15T09:44:46.361Z,64.79
2022-09-15T09:47:12.859Z,64.62
2022-09-15T09:49:49.539Z,64.32
2022-09-15T09:52:41.392Z,63.93
2022-09-15T09:55:22.583Z,64.11
2022-09-15T09:57:49.704Z,64.64
2022-09-15T10:00:30.467Z,65.14
2022-09-15T10:02:57.099Z,63.21
2022-09-15T10:05:23.630Z,61.83
2022-09-15T10:07:50.226Z,62.27
2022-09-15T10:10:24.704Z,62.45
2022-09-15T10:12:55.309Z,59.45
2022-09-15T10:15:27.366Z,60.83
2022-09-15T10:17:54.644Z,61.20
2022-09-15T10:20:32.760Z,60.98
2022-09-15T10:23:07.096Z,59.41
2022-09-15T10:25:57.496Z,57.44
2022-09-15T10:28:23.326Z,59.12
2022-09-15T10:30:58.888Z,57.78
2022-09-15T10:33:26.186Z,57.66
2022-09-15T10:35:53.687Z,57.65
2022-09-15T10:38:37.802Z,56.65
2022-09-15T10:41:22.788Z,56.97
2022-09-15T10:44:13.705Z,57.78
2022-09-15T10:47:09.126Z,59.21
2022-09-15T10:49:48.368Z,57.53
2022-09-15T10:52:31.056Z,60.51
2022-09-15T10:55:00.517Z,57.11
2022-09-15T10:57:48.868Z,58.04
2022-09-15T11:00:22.774Z,58.08
2022-09-15T11:03:07.853Z,59.15
2022-09-15T11:05:41.196Z,58.07
2022-09-15T11:08:15.820Z,58.38
2022-09-15T11:11:07.161Z,59.93
2022-09-15T11:13:41.033Z,59.86
2022-09-15T11:16:26.318Z,59.59
2022-09-15T11:19:11.629Z,61.28
2022-09-15T11:21:45.330Z,60.43
2022-09-15T11:24:42.081Z,64.20
2022-09-15T11:27:20.145Z,66.58
2022-09-15T11:30:03.894Z,64.13
2022-09-15T11:32:36.616Z,62.14
2022-09-15T11:35:29.203Z,61.02
2022-09-15T11:37:59.726Z,60.54
2022-09-15T11:40:35.082Z,60.12
2022-09-15T11:43:34.860Z,58.40
2022-09-15T11:46:03.256Z,60.91
2022-09-15T11:48:42.008Z,57.86
2022-09-15T11:51:09.659Z,57.18
2022-09-15T11:54:18.251Z,58.24
2022-09-15T11:56:46.706Z,57.50
2022-09-15T11:59:46.698Z,59.38
2022-09-15T12:02:26.298Z,59.61
2022-09-15T12:05:02.417Z,62.02
2022-09-15T12:07:31.535Z,62.35
2022-09-15T12:10:05.604Z,63.55
2022-09-15T12:12:33.494Z,65.86
2022-09-15T12:14:59.972Z,65.64
2022-09-15T12:17:34.178Z,65.54
2022-09-15T12:20:40.716Z,66.12
2022-09-15T12:23:10.180Z,66.24
2022-09-15T12:25:41.881Z,66.87
2022-09-15T12:28:24.897Z,69.71
2022-09-15T12:31:29.764Z,70.47
2022-09-15T12:34:04.585Z,72.08
2022-09-15T12:36:43.038Z,73.30
2022-09-15T12:39:20.944Z,74.77
2022-09-15T12:41:53.396Z,78.60
2022-09-15T12:45:06.126Z,79.20
2022-09-15T12:47:48.842Z,78.70
2022-09-15T12:50:15.217Z,81.04
2022-09-15T12:52:47.322Z,80.89
2022-09-15T12:55:23.136Z,82.96
2022-09-15T12:57:53.063Z,83.87
2022-09-15T13:00:28.830Z,83.94
2022-09-15T13:02:55.758Z,82.40
2022-09-15T13:05:41.230Z,81.52
2022-09-15T13:08:12.709Z,79.45
2022-09-15T13:10:41.424Z,78.73
2022-09-15T13:13:13.832Z,80.04
2022-09-15T13:15:43.381Z,77.69
2022-09-15T13:18:09.941Z,74.54
2022-09-15T13:20:38.353Z,71.86
2022-09-15T13:23:08.459Z,68.14
2022-09-15T13:25:35.834Z,69.12
2022-09-15T13:28:02.560Z,69.72
2022-09-15T13:30:28.977Z,67.94
2022-09-15T13:35:01.062Z,68.22
2022-09-15T13:36:22.450Z,66.29
2022-09-15T13:39:04.606Z,66.19
2022-09-15T13:41:58.949Z,64.17
2022-09-15T13:44:34.216Z,63.82
2022-09-15T13:47:17.017Z,64.22
2022-09-15T13:49:57.664Z,62.79
2022-09-15T13:52:31.060Z,63.28
2022-09-15T13:55:15.106Z,65.69
2022-09-15T14:00:33.877Z,63.64
2022-09-15T14:03:01.861Z,63.77
2022-09-15T14:05:30.222Z,62.73
2022-09-15T14:08:01.266Z,64.86
2022-09-15T14:10:31.008Z,63.98
2022-09-15T14:13:00.717Z,62.41
2022-09-15T14:15:28.731Z,61.06
2022-09-15T14:17:55.736Z,62.87
2022-09-15T14:20:25.701Z,63.53
2022-09-15T14:22:52.162Z,61.07
2022-09-15T14:25:20.073Z,60.56
2022-09-15T14:27:54.176Z,61.23
2022-09-15T14:30:29.859Z,61.47
2022-09-15T14:33:01.128Z,62.36
2022-09-15T14:35:30.698Z,62.24
2022-09-15T14:37:59.326Z,63.71
2022-09-15T14:40:35.298Z,62.23
2022-09-15T14:43:02.228Z,63.45
2022-09-15T14:48:26.899Z,63.49
2022-09-15T14:51:05.408Z,66.09
2022-09-15T14:53:35.018Z,66.88
2022-09-15T14:56:08.705Z,67.14
2022-09-15T14:58:42.871Z,67.94
2022-09-15T15:01:14.379Z,67.39
2022-09-15T15:03:48.228Z,67.88
2022-09-15T15:06:34.594Z,69.33
2022-09-15T15:09:03.407Z,69.75
2022-09-15T15:11:31.250Z,69.43
2022-09-15T15:13:57.749Z,71.15
2022-09-15T15:16:29.875Z,69.30
2022-09-15T15:18:56.864Z,69.33
2022-09-15T15:21:37.121Z,70.47
2022-09-15T15:24:09.636Z,70.65
2022-09-15T15:26:37.730Z,71.82
2022-09-15T15:29:08.165Z,73.01
2022-09-15T15:31:38.773Z,75.13
2022-09-15T15:34:06.897Z,75.31
2022-09-15T15:36:34.734Z,75.73
2022-09-15T15:39:06.350Z,75.05
2022-09-15T15:41:38.986Z,76.87
2022-09-15T15:44:16.026Z,77.93
2022-09-15T15:47:01.625Z,78.58
2022-09-15T15:49:30.467Z,78.18
2022-09-15T15:51:58.841Z,77.93
2022-09-15T15:54:26.483Z,79.02
2022-09-15T15:56:53.301Z,79.24
2022-09-15T15:59:20.044Z,81.13
2022-09-15T16:01:48.828Z,82.92
2022-09-15T16:04:15.381Z,83.29
2022-09-15T16:06:43.057Z,84.60
2022-09-15T16:09:09.518Z,83.90
2022-09-15T16:11:35.999Z,83.20
2022-09-15T16:14:02.455Z,82.23
2022-09-15T16:16:28.976Z,83.69
2022-09-15T16:18:55.567Z,83.41
2022-09-15T16:21:32.520Z,82.69
2022-09-15T16:23:58.967Z,82.01
2022-09-15T16:26:26.067Z,82.47
2022-09-15T16:28:52.641Z,82.08
2022-09-15T16:31:19.241Z,82.45
2022-09-15T16:33:45.813Z,81.36
2022-09-15T16:36:14.333Z,80.75
2022-09-15T16:38:41.342Z,81.51
2022-09-15T16:41:21.867Z,81.54
2022-09-15T16:43:48.959Z,81.87
2022-09-15T16:46:15.960Z,82.62
2022-09-15T16:48:43.795Z,83.97
2022-09-15T16:51:31.611Z,84.05
2022-09-15T16:53:58.483Z,85.39
2022-09-15T16:56:25.029Z,84.53
2022-09-15T16:58:54.780Z,84.55
2022-09-15T17:01:23.904Z,85.34
2022-09-15T17:03:50.457Z,85.59
2022-09-15T17:06:17.428Z,84.50
2022-09-15T17:08:44.007Z,85.99
2022-09-15T17:11:16.667Z,86.02
2022-09-15T17:13:43.865Z,85.66
2022-09-15T17:16:11.161Z,85.71
2022-09-15T17:18:37.708Z,85.43
2022-09-15T17:21:04.266Z,86.20
2022-09-15T17:23:41.527Z,86.76
2022-09-15T17:26:13.594Z,86.64
2022-09-15T17:28:40.626Z,86.44
2022-09-15T17:31:14.125Z,86.50
2022-09-15T17:33:40.923Z,88.91
2022-09-15T17:36:07.582Z,89.11
2022-09-15T17:38:34.220Z,88.88
2022-09-15T17:41:00.700Z,89.30
2022-09-15T17:43:29.825Z,89.14
2022-09-15T17:45:56.599Z,89.27
2022-09-15T17:48:23.793Z,88.36
2022-09-15T17:50:50.499Z,87.45
2022-09-15T17:53:18.866Z,88.21
2022-09-15T17:55:45.294Z,88.58
2022-09-15T17:58:11.760Z,89.37
2022-09-15T18:00:40.081Z,88.63
2022-09-15T18:03:28.943Z,88.69
2022-09-15T18:05:56.726Z,88.06
2022-09-15T18:08:23.256Z,88.11
2022-09-15T18:10:49.756Z,86.99
2022-09-15T18:13:18.880Z,87.54
2022-09-15T18:15:45.479Z,87.42
2022-09-15T18:18:14.552Z,87.37
2022-09-15T18:20:41.329Z,87.40
2022-09-15T18:23:15.866Z,87.54
2022-09-15T18:25:42.494Z,86.59
2022-09-15T18:28:11.597Z,86.55
2022-09-15T18:30:39.787Z,87.27
2022-09-15T18:33:23.695Z,86.46
2022-09-15T18:35:56.504Z,86.96
2022-09-15T18:38:23.228Z,87.54
2022-09-15T18:40:52.004Z,86.83
2022-09-15T18:43:19.437Z,86.60
2022-09-15T18:45:46.216Z,85.98
2022-09-15T18:48:13.080Z,85.15
2022-09-15T18:50:40.497Z,84.85
2022-09-15T18:53:07.011Z,84.83
2022-09-15T18:55:33.532Z,85.57
2022-09-15T18:58:01.178Z,85.99
2022-09-15T19:00:28.862Z,87.36
2022-09-15T19:02:56.903Z,87.22
2022-09-15T19:05:24.047Z,88.45
2022-09-15T19:07:50.523Z,89.14
2022-09-15T19:10:17.033Z,88.97
2022-09-15T19:12:44.000Z,88.29
2022-09-15T19:15:12.209Z,87.12
2022-09-15T19:17:39.694Z,87.16
2022-09-15T19:20:07.470Z,87.10
2022-09-15T19:22:36.156Z,86.81
2022-09-15T19:25:03.332Z,86.41
2022-09-15T19:27:29.855Z,85.66
2022-09-15T19:29:56.302Z,85.19
2022-09-15T19:32:22.909Z,86.99
2022-09-15T19:34:49.783Z,88.00
2022-09-15T19:37:21.079Z,88.74
2022-09-15T19:39:48.069Z,87.89
2022-09-15T19:44:47.092Z,88.12
2022-09-15T19:47:13.576Z,88.11
2022-09-15T19:49:40.053Z,88.50
2022-09-15T19:52:06.633Z,88.67
2022-09-15T19:54:33.629Z,89.03
2022-09-15T19:57:00.118Z,89.39
2022-09-15T19:59:42.875Z,89.96
2022-09-15T20:02:18.560Z,90.71
2022-09-15T20:04:45.242Z,91.18
2022-09-15T20:07:11.703Z,92.89
2022-09-15T20:12:28.399Z,92.08
2022-09-15T20:14:54.870Z,92.45
2022-09-15T20:17:21.387Z,92.52
2022-09-15T20:19:47.948Z,91.62
2022-09-15T20:22:14.647Z,92.38
2022-09-15T20:24:41.119Z,92.70
2022-09-15T20:27:07.704Z,93.64
2022-09-15T20:29:34.500Z,94.08
2022-09-15T20:32:01.019Z,92.90
2022-09-15T20:34:29.975Z,93.24
2022-09-15T20:36:56.562Z,92.34
2022-09-15T20:39:23.011Z,91.82
2022-09-15T20:41:49.461Z,90.35
2022-09-15T20:44:16.012Z,90.18
2022-09-15T20:46:42.512Z,90.29
2022-09-15T20:49:11.313Z,89.94
2022-09-15T20:51:37.831Z,89.80
2022-09-15T20:54:04.844Z,89.44
2022-09-15T20:56:36.126Z,90.23
2022-09-15T20:59:04.778Z,90.28
2022-09-15T21:01:37.049Z,91.28
2022-09-15T21:04:05.599Z,91.88
2022-09-15T21:06:32.482Z,93.00
2022-09-15T21:08:58.996Z,93.15
2022-09-15T21:11:26.755Z,93.91
2022-09-15T21:13:54.258Z,93.93
2022-09-15T21:16:23.219Z,94.63
2022-09-15T21:18:50.339Z,94.05
2022-09-15T21:21:21.427Z,94.33
2022-09-15T21:23:49.798Z,94.76
2022-09-15T21:26:18.040Z,95.64
2022-09-15T21:28:45.153Z,94.85
2022-09-15T21:31:22.606Z,94.67
2022-09-15T21:33:49.540Z,95.00
2022-09-15T21:36:24.055Z,93.30
2022-09-15T21:38:53.983Z,92.16
2022-09-15T21:41:22.782Z,90.71
2022-09-15T21:43:50.553Z,89.33
2022-09-15T21:46:18.915Z,89.69
2022-09-15T21:48:46.440Z,90.39
2022-09-15T21:51:13.987Z,91.41
2022-09-15T21:53:40.978Z,91.05
2022-09-15T21:56:08.826Z,90.78
2022-09-15T21:58:41.753Z,90.19
2022-09-15T22:01:27.105Z,90.49
2022-09-15T22:03:55.733Z,90.27
2022-09-15T22:06:24.194Z,90.82
2022-09-15T22:08:50.723Z,90.81
2022-09-15T22:11:17.152Z,91.01
2022-09-15T22:13:43.898Z,91.02
2022-09-15T22:16:19.492Z,91.25
2022-09-15T22:18:46.457Z,92.90
2022-09-15T22:21:18.798Z,93.43
2022-09-15T22:23:46.884Z,94.15
2022-09-15T22:26:16.418Z,94.84
2022-09-15T22:28:43.219Z,93.29
2022-09-15T22:31:11.481Z,93.07
2022-09-15T22:33:38.009Z,93.12
2022-09-15T22:36:04.691Z,92.66
2022-09-15T22:38:31.997Z,90.85
2022-09-15T22:41:04.372Z,91.17
2022-09-15T22:43:30.868Z,91.14
2022-09-15T22:45:57.380Z,90.30
2022-09-15T22:48:23.994Z,88.77
2022-09-15T22:50:50.516Z,88.58
2022-09-15T22:53:16.964Z,89.91
2022-09-15T22:55:43.523Z,92.27
2022-09-15T22:58:09.960Z,92.37
2022-09-15T23:00:39.449Z,93.75
2022-09-15T23:03:06.525Z,94.62
2022-09-15T23:05:33.427Z,94.12
2022-09-15T23:08:00.054Z,92.73
2022-09-15T23:10:26.531Z,91.06
2022-09-15T23:12:53.074Z,91.41
2022-09-15T23:15:19.645Z,91.09
2022-09-15T23:17:46.673Z,90.78
2022-09-15T23:20:13.196Z,91.35
2022-09-15T23:22:39.694Z,90.55
2022-09-15T23:25:06.413Z,89.90
2022-09-15T23:27:32.899Z,89.39
2022-09-15T23:29:59.350Z,88.33
2022-09-15T23:32:25.856Z,86.89
2022-09-15T23:34:52.294Z,89.56
2022-09-15T23:37:18.731Z,88.56
2022-09-15T23:39:45.220Z,87.95
2022-09-15T23:42:15.567Z,86.60
2022-09-15T23:44:44.652Z,87.51
2022-09-15T23:47:11.096Z,86.98
2022-09-15T23:49:37.594Z,88.83
2022-09-15T23:52:04.069Z,89.49
2022-09-15T23:54:30.572Z,90.16
2022-09-15T23:56:57.023Z,90.27
2022-09-15T23:59:23.593Z,89.97
